sensor_id;sensor_type;location;lat;lon;timestamp;P1;durP1;ratioP1;P2;durP2;ratioP2
68700;SDS011;55682;51.114;5.882;2024-01-15T00:02:08;21.60;;;20.29;;
68700;SDS011;55682;51.114;5.882;2024-01-15T00:04:38;22.69;;;20.89;;
68700;SDS011;55682;51.114;5.882;2024-01-15T00:07:04;21.57;;;20.27;;
68700;SDS011;55682;51.114;5.882;2024-01-15T00:09:31;21.80;;;20.65;;
68700;SDS011;55682;51.114;5.882;2024-01-15T00:11:57;21.09;;;19.96;;
68700;SDS011;55682;51.114;5.882;2024-01-15T00:14:22;20.48;;;19.03;;
68700;SDS011;55682;51.114;5.882;2024-01-15T00:16:48;20.93;;;19.47;;
68700;SDS011;55682;51.114;5.882;2024-01-15T00:19:16;20.86;;;19.75;;
68700;SDS011;55682;51.114;5.882;2024-01-15T00:21:44;20.36;;;18.83;;
68700;SDS011;55682;51.114;5.882;2024-01-15T00:24:10;21.15;;;19.88;;
68700;SDS011;55682;51.114;5.882;2024-01-15T00:26:36;20.43;;;19.52;;
68700;SDS011;55682;51.114;5.882;2024-01-15T00:29:02;20.58;;;19.34;;
68700;SDS011;55682;51.114;5.882;2024-01-15T00:31:28;19.11;;;18.45;;
68700;SDS011;55682;51.114;5.882;2024-01-15T00:33:55;19.02;;;18.03;;
68700;SDS011;55682;51.114;5.882;2024-01-15T00:36:21;19.74;;;19.21;;
68700;SDS011;55682;51.114;5.882;2024-01-15T00:38:47;19.11;;;18.38;;
68700;SDS011;55682;51.114;5.882;2024-01-15T00:41:13;21.04;;;20.03;;
68700;SDS011;55682;51.114;5.882;2024-01-15T00:43:39;20.36;;;19.37;;
68700;SDS011;55682;51.114;5.882;2024-01-15T00:46:04;20.22;;;19.06;;
68700;SDS011;55682;51.114;5.882;2024-01-15T00:48:30;21.50;;;20.10;;
68700;SDS011;55682;51.114;5.882;2024-01-15T00:50:57;20.82;;;19.47;;
68700;SDS011;55682;51.114;5.882;2024-01-15T00:53:22;21.43;;;20.08;;
68700;SDS011;55682;51.114;5.882;2024-01-15T00:55:48;20.11;;;19.03;;
68700;SDS011;55682;51.114;5.882;2024-01-15T00:58:14;21.15;;;19.94;;
68700;SDS011;55682;51.114;5.882;2024-01-15T01:00:41;20.79;;;19.54;;
68700;SDS011;55682;51.114;5.882;2024-01-15T01:03:07;22.04;;;20.55;;
68700;SDS011;55682;51.114;5.882;2024-01-15T01:05:34;21.91;;;20.60;;
68700;SDS011;55682;51.114;5.882;2024-01-15T01:08:00;20.71;;;19.86;;
68700;SDS011;55682;51.114;5.882;2024-01-15T01:10:26;22.13;;;20.60;;
68700;SDS011;55682;51.114;5.882;2024-01-15T01:12:52;22.07;;;20.58;;
68700;SDS011;55682;51.114;5.882;2024-01-15T01:15:18;19.39;;;18.55;;
68700;SDS011;55682;51.114;5.882;2024-01-15T01:17:44;21.13;;;20.03;;
68700;SDS011;55682;51.114;5.882;2024-01-15T01:20:09;19.93;;;19.12;;
68700;SDS011;55682;51.114;5.882;2024-01-15T01:22:36;19.88;;;19.02;;
68700;SDS011;55682;51.114;5.882;2024-01-15T01:25:02;19.59;;;18.79;;
68700;SDS011;55682;51.114;5.882;2024-01-15T01:27:28;19.04;;;18.28;;
68700;SDS011;55682;51.114;5.882;2024-01-15T01:29:54;19.16;;;18.66;;
68700;SDS011;55682;51.114;5.882;2024-01-15T01:32:19;18.37;;;17.84;;
68700;SDS011;55682;51.114;5.882;2024-01-15T01:34:45;17.37;;;16.83;;
68700;SDS011;55682;51.114;5.882;2024-01-15T01:37:11;15.46;;;15.15;;
68700;SDS011;55682;51.114;5.882;2024-01-15T01:39:43;14.85;;;14.56;;
68700;SDS011;55682;51.114;5.882;2024-01-15T01:42:09;14.50;;;14.18;;
68700;SDS011;55682;51.114;5.882;2024-01-15T01:44:35;14.41;;;14.14;;
68700;SDS011;55682;51.114;5.882;2024-01-15T01:47:01;15.08;;;14.91;;
68700;SDS011;55682;51.114;5.882;2024-01-15T01:49:28;15.15;;;14.86;;
68700;SDS011;55682;51.114;5.882;2024-01-15T01:51:58;16.47;;;16.12;;
68700;SDS011;55682;51.114;5.882;2024-01-15T01:54:27;15.99;;;15.59;;
68700;SDS011;55682;51.114;5.882;2024-01-15T01:56:55;15.04;;;14.68;;
68700;SDS011;55682;51.114;5.882;2024-01-15T01:59:23;15.69;;;15.55;;
68700;SDS011;55682;51.114;5.882;2024-01-15T02:01:51;15.80;;;15.58;;
68700;SDS011;55682;51.114;5.882;2024-01-15T02:04:19;16.08;;;15.77;;
68700;SDS011;55682;51.114;5.882;2024-01-15T02:06:48;15.68;;;15.42;;
68700;SDS011;55682;51.114;5.882;2024-01-15T02:09:15;15.92;;;15.69;;
68700;SDS011;55682;51.114;5.882;2024-01-15T02:11:41;15.49;;;15.34;;
68700;SDS011;55682;51.114;5.882;2024-01-15T02:14:08;15.83;;;15.63;;
68700;SDS011;55682;51.114;5.882;2024-01-15T02:16:35;15.03;;;14.92;;
68700;SDS011;55682;51.114;5.882;2024-01-15T02:19:00;15.53;;;15.33;;
68700;SDS011;55682;51.114;5.882;2024-01-15T02:21:26;15.35;;;15.11;;
68700;SDS011;55682;51.114;5.882;2024-01-15T02:23:54;15.49;;;15.34;;
68700;SDS011;55682;51.114;5.882;2024-01-15T02:26:20;14.04;;;13.89;;
68700;SDS011;55682;51.114;5.882;2024-01-15T02:28:47;15.24;;;15.09;;
68700;SDS011;55682;51.114;5.882;2024-01-15T02:31:13;14.66;;;14.56;;
68700;SDS011;55682;51.114;5.882;2024-01-15T02:33:39;15.44;;;15.29;;
68700;SDS011;55682;51.114;5.882;2024-01-15T02:36:05;16.24;;;15.96;;
68700;SDS011;55682;51.114;5.882;2024-01-15T02:38:31;15.34;;;15.19;;
68700;SDS011;55682;51.114;5.882;2024-01-15T02:40:57;14.18;;;14.00;;
68700;SDS011;55682;51.114;5.882;2024-01-15T02:43:22;13.75;;;13.59;;
68700;SDS011;55682;51.114;5.882;2024-01-15T02:45:48;14.11;;;14.02;;
68700;SDS011;55682;51.114;5.882;2024-01-15T02:48:14;12.77;;;12.53;;
68700;SDS011;55682;51.114;5.882;2024-01-15T02:50:40;12.94;;;12.71;;
68700;SDS011;55682;51.114;5.882;2024-01-15T02:53:05;12.28;;;12.13;;
68700;SDS011;55682;51.114;5.882;2024-01-15T02:55:31;12.65;;;12.49;;
68700;SDS011;55682;51.114;5.882;2024-01-15T02:57:57;12.16;;;12.01;;
68700;SDS011;55682;51.114;5.882;2024-01-15T03:00:23;11.19;;;11.13;;
68700;SDS011;55682;51.114;5.882;2024-01-15T03:02:50;11.27;;;11.24;;
68700;SDS011;55682;51.114;5.882;2024-01-15T03:05:16;11.53;;;11.34;;
68700;SDS011;55682;51.114;5.882;2024-01-15T03:07:42;10.99;;;10.92;;
68700;SDS011;55682;51.114;5.882;2024-01-15T03:10:08;11.08;;;11.05;;
68700;SDS011;55682;51.114;5.882;2024-01-15T03:12:34;11.31;;;11.20;;
68700;SDS011;55682;51.114;5.882;2024-01-15T03:15:00;11.01;;;10.99;;
68700;SDS011;55682;51.114;5.882;2024-01-15T03:17:26;11.38;;;11.33;;
68700;SDS011;55682;51.114;5.882;2024-01-15T03:19:52;10.90;;;10.87;;
68700;SDS011;55682;51.114;5.882;2024-01-15T03:22:18;10.60;;;10.57;;
68700;SDS011;55682;51.114;5.882;2024-01-15T03:24:44;10.74;;;10.71;;
68700;SDS011;55682;51.114;5.882;2024-01-15T03:27:09;10.52;;;10.51;;
68700;SDS011;55682;51.114;5.882;2024-01-15T03:29:35;10.70;;;10.62;;
68700;SDS011;55682;51.114;5.882;2024-01-15T03:32:01;11.30;;;11.26;;
68700;SDS011;55682;51.114;5.882;2024-01-15T03:34:26;11.49;;;11.38;;
68700;SDS011;55682;51.114;5.882;2024-01-15T03:36:52;10.95;;;10.88;;
68700;SDS011;55682;51.114;5.882;2024-01-15T03:39:18;10.80;;;10.78;;
68700;SDS011;55682;51.114;5.882;2024-01-15T03:41:43;10.56;;;10.54;;
68700;SDS011;55682;51.114;5.882;2024-01-15T03:44:10;10.72;;;10.71;;
68700;SDS011;55682;51.114;5.882;2024-01-15T03:46:35;11.65;;;11.63;;
68700;SDS011;55682;51.114;5.882;2024-01-15T03:49:01;11.67;;;11.63;;
68700;SDS011;55682;51.114;5.882;2024-01-15T03:51:27;12.17;;;12.11;;
68700;SDS011;55682;51.114;5.882;2024-01-15T03:53:52;11.74;;;11.67;;
68700;SDS011;55682;51.114;5.882;2024-01-15T03:56:18;11.79;;;11.75;;
68700;SDS011;55682;51.114;5.882;2024-01-15T03:58:44;11.25;;;11.22;;
68700;SDS011;55682;51.114;5.882;2024-01-15T04:01:09;11.01;;;10.94;;
68700;SDS011;55682;51.114;5.882;2024-01-15T04:03:36;10.09;;;10.05;;
68700;SDS011;55682;51.114;5.882;2024-01-15T04:06:02;9.42;;;9.36;;
68700;SDS011;55682;51.114;5.882;2024-01-15T04:08:29;9.52;;;9.42;;
68700;SDS011;55682;51.114;5.882;2024-01-15T04:10:54;9.62;;;9.50;;
68700;SDS011;55682;51.114;5.882;2024-01-15T04:13:20;9.88;;;9.78;;
68700;SDS011;55682;51.114;5.882;2024-01-15T04:15:46;9.58;;;9.48;;
68700;SDS011;55682;51.114;5.882;2024-01-15T04:18:12;9.25;;;9.23;;
68700;SDS011;55682;51.114;5.882;2024-01-15T04:20:37;8.82;;;8.81;;
68700;SDS011;55682;51.114;5.882;2024-01-15T04:23:03;8.45;;;8.43;;
68700;SDS011;55682;51.114;5.882;2024-01-15T04:25:30;7.91;;;7.90;;
68700;SDS011;55682;51.114;5.882;2024-01-15T04:27:55;7.67;;;7.67;;
68700;SDS011;55682;51.114;5.882;2024-01-15T04:30:21;6.60;;;6.59;;
68700;SDS011;55682;51.114;5.882;2024-01-15T04:32:47;6.28;;;6.27;;
68700;SDS011;55682;51.114;5.882;2024-01-15T04:35:12;6.31;;;6.31;;
68700;SDS011;55682;51.114;5.882;2024-01-15T04:37:39;6.21;;;6.20;;
68700;SDS011;55682;51.114;5.882;2024-01-15T04:40:05;6.59;;;6.59;;
68700;SDS011;55682;51.114;5.882;2024-01-15T04:42:32;6.89;;;6.89;;
68700;SDS011;55682;51.114;5.882;2024-01-15T04:44:57;8.09;;;8.08;;
68700;SDS011;55682;51.114;5.882;2024-01-15T04:47:24;8.32;;;8.28;;
68700;SDS011;55682;51.114;5.882;2024-01-15T04:49:50;8.10;;;8.09;;
68700;SDS011;55682;51.114;5.882;2024-01-15T04:52:16;8.76;;;8.67;;
68700;SDS011;55682;51.114;5.882;2024-01-15T04:54:42;8.18;;;8.14;;
68700;SDS011;55682;51.114;5.882;2024-01-15T04:57:07;8.79;;;8.65;;
68700;SDS011;55682;51.114;5.882;2024-01-15T04:59:33;8.67;;;8.64;;
68700;SDS011;55682;51.114;5.882;2024-01-15T05:05:46;9.77;;;9.70;;
68700;SDS011;55682;51.114;5.882;2024-01-15T05:08:12;9.00;;;8.99;;
68700;SDS011;55682;51.114;5.882;2024-01-15T05:10:37;9.54;;;9.53;;
68700;SDS011;55682;51.114;5.882;2024-01-15T05:13:03;10.06;;;10.05;;
68700;SDS011;55682;51.114;5.882;2024-01-15T05:15:29;10.06;;;10.01;;
68700;SDS011;55682;51.114;5.882;2024-01-15T05:17:54;9.71;;;9.67;;
68700;SDS011;55682;51.114;5.882;2024-01-15T05:20:20;9.83;;;9.77;;
68700;SDS011;55682;51.114;5.882;2024-01-15T05:22:46;9.37;;;9.29;;
68700;SDS011;55682;51.114;5.882;2024-01-15T05:25:11;9.21;;;9.17;;
68700;SDS011;55682;51.114;5.882;2024-01-15T05:27:37;9.05;;;8.98;;
68700;SDS011;55682;51.114;5.882;2024-01-15T05:30:03;9.98;;;9.91;;
68700;SDS011;55682;51.114;5.882;2024-01-15T05:32:29;9.23;;;9.23;;
68700;SDS011;55682;51.114;5.882;2024-01-15T05:34:54;9.46;;;9.39;;
68700;SDS011;55682;51.114;5.882;2024-01-15T05:37:20;9.38;;;9.25;;
68700;SDS011;55682;51.114;5.882;2024-01-15T05:39:45;8.86;;;8.82;;
68700;SDS011;55682;51.114;5.882;2024-01-15T05:42:11;8.88;;;8.77;;
68700;SDS011;55682;51.114;5.882;2024-01-15T05:44:37;9.12;;;8.96;;
68700;SDS011;55682;51.114;5.882;2024-01-15T05:47:03;9.06;;;9.00;;
68700;SDS011;55682;51.114;5.882;2024-01-15T05:49:29;8.74;;;8.73;;
68700;SDS011;55682;51.114;5.882;2024-01-15T05:51:55;8.40;;;8.39;;
68700;SDS011;55682;51.114;5.882;2024-01-15T05:54:20;9.22;;;9.11;;
68700;SDS011;55682;51.114;5.882;2024-01-15T05:56:46;9.50;;;9.47;;
68700;SDS011;55682;51.114;5.882;2024-01-15T05:59:12;8.54;;;8.53;;
68700;SDS011;55682;51.114;5.882;2024-01-15T06:01:38;8.40;;;8.39;;
68700;SDS011;55682;51.114;5.882;2024-01-15T06:04:03;8.91;;;8.89;;
68700;SDS011;55682;51.114;5.882;2024-01-15T06:06:29;8.30;;;8.30;;
68700;SDS011;55682;51.114;5.882;2024-01-15T06:08:55;8.51;;;8.51;;
68700;SDS011;55682;51.114;5.882;2024-01-15T06:11:20;8.55;;;8.55;;
68700;SDS011;55682;51.114;5.882;2024-01-15T06:13:46;8.60;;;8.59;;
68700;SDS011;55682;51.114;5.882;2024-01-15T06:16:15;9.17;;;9.16;;
68700;SDS011;55682;51.114;5.882;2024-01-15T06:18:45;9.49;;;9.47;;
68700;SDS011;55682;51.114;5.882;2024-01-15T06:21:11;10.02;;;9.92;;
68700;SDS011;55682;51.114;5.882;2024-01-15T06:23:38;10.20;;;10.01;;
68700;SDS011;55682;51.114;5.882;2024-01-15T06:26:04;10.41;;;10.34;;
68700;SDS011;55682;51.114;5.882;2024-01-15T06:28:30;10.48;;;10.46;;
68700;SDS011;55682;51.114;5.882;2024-01-15T06:30:56;11.57;;;11.40;;
68700;SDS011;55682;51.114;5.882;2024-01-15T06:33:23;10.79;;;10.63;;
68700;SDS011;55682;51.114;5.882;2024-01-15T06:35:49;11.12;;;11.12;;
68700;SDS011;55682;51.114;5.882;2024-01-15T06:38:16;11.15;;;11.12;;
68700;SDS011;55682;51.114;5.882;2024-01-15T06:40:42;11.66;;;11.50;;
68700;SDS011;55682;51.114;5.882;2024-01-15T06:43:16;11.39;;;11.35;;
68700;SDS011;55682;51.114;5.882;2024-01-15T06:45:43;11.09;;;11.06;;
68700;SDS011;55682;51.114;5.882;2024-01-15T06:48:09;12.37;;;12.23;;
68700;SDS011;55682;51.114;5.882;2024-01-15T06:50:34;12.62;;;12.51;;
68700;SDS011;55682;51.114;5.882;2024-01-15T06:53:00;12.90;;;12.75;;
68700;SDS011;55682;51.114;5.882;2024-01-15T06:55:26;12.18;;;12.12;;
68700;SDS011;55682;51.114;5.882;2024-01-15T06:57:53;12.80;;;12.78;;
68700;SDS011;55682;51.114;5.882;2024-01-15T07:00:18;12.85;;;12.81;;
68700;SDS011;55682;51.114;5.882;2024-01-15T07:02:45;13.20;;;13.17;;
68700;SDS011;55682;51.114;5.882;2024-01-15T07:05:11;13.78;;;13.70;;
68700;SDS011;55682;51.114;5.882;2024-01-15T07:07:36;12.81;;;12.79;;
68700;SDS011;55682;51.114;5.882;2024-01-15T07:10:02;13.43;;;13.36;;
68700;SDS011;55682;51.114;5.882;2024-01-15T07:12:29;13.38;;;13.35;;
68700;SDS011;55682;51.114;5.882;2024-01-15T07:14:55;13.10;;;13.04;;
68700;SDS011;55682;51.114;5.882;2024-01-15T07:17:21;12.45;;;12.35;;
68700;SDS011;55682;51.114;5.882;2024-01-15T07:19:47;12.21;;;12.11;;
68700;SDS011;55682;51.114;5.882;2024-01-15T07:22:13;12.93;;;12.73;;
68700;SDS011;55682;51.114;5.882;2024-01-15T07:24:40;12.52;;;12.45;;
68700;SDS011;55682;51.114;5.882;2024-01-15T07:27:05;12.29;;;12.25;;
68700;SDS011;55682;51.114;5.882;2024-01-15T07:29:31;12.05;;;11.99;;
68700;SDS011;55682;51.114;5.882;2024-01-15T07:32:02;11.67;;;11.58;;
68700;SDS011;55682;51.114;5.882;2024-01-15T07:34:28;12.94;;;12.78;;
68700;SDS011;55682;51.114;5.882;2024-01-15T07:36:54;13.51;;;13.34;;
68700;SDS011;55682;51.114;5.882;2024-01-15T07:39:20;12.98;;;12.86;;
68700;SDS011;55682;51.114;5.882;2024-01-15T07:41:47;13.17;;;13.05;;
68700;SDS011;55682;51.114;5.882;2024-01-15T07:44:13;13.34;;;13.22;;
68700;SDS011;55682;51.114;5.882;2024-01-15T07:46:40;14.37;;;14.18;;
68700;SDS011;55682;51.114;5.882;2024-01-15T07:49:09;13.89;;;13.73;;
68700;SDS011;55682;51.114;5.882;2024-01-15T07:51:34;14.81;;;14.70;;
68700;SDS011;55682;51.114;5.882;2024-01-15T07:54:00;14.41;;;14.30;;
68700;SDS011;55682;51.114;5.882;2024-01-15T07:56:26;14.90;;;14.74;;
68700;SDS011;55682;51.114;5.882;2024-01-15T07:58:52;14.12;;;13.94;;
68700;SDS011;55682;51.114;5.882;2024-01-15T08:01:18;14.33;;;14.32;;
68700;SDS011;55682;51.114;5.882;2024-01-15T08:03:44;14.29;;;14.13;;
68700;SDS011;55682;51.114;5.882;2024-01-15T08:06:09;14.72;;;14.64;;
68700;SDS011;55682;51.114;5.882;2024-01-15T08:08:36;14.01;;;14.00;;
68700;SDS011;55682;51.114;5.882;2024-01-15T08:11:04;13.31;;;13.31;;
68700;SDS011;55682;51.114;5.882;2024-01-15T08:13:30;13.27;;;13.27;;
68700;SDS011;55682;51.114;5.882;2024-01-15T08:15:56;12.95;;;12.93;;
68700;SDS011;55682;51.114;5.882;2024-01-15T08:18:22;11.51;;;11.46;;
68700;SDS011;55682;51.114;5.882;2024-01-15T08:20:47;11.46;;;11.38;;
68700;SDS011;55682;51.114;5.882;2024-01-15T08:23:13;10.66;;;10.63;;
68700;SDS011;55682;51.114;5.882;2024-01-15T08:25:39;10.38;;;10.38;;
68700;SDS011;55682;51.114;5.882;2024-01-15T08:28:05;9.70;;;9.70;;
68700;SDS011;55682;51.114;5.882;2024-01-15T08:30:30;9.46;;;9.46;;
68700;SDS011;55682;51.114;5.882;2024-01-15T08:32:56;8.89;;;8.89;;
68700;SDS011;55682;51.114;5.882;2024-01-15T08:35:22;7.62;;;7.62;;
68700;SDS011;55682;51.114;5.882;2024-01-15T08:37:49;7.26;;;7.26;;
68700;SDS011;55682;51.114;5.882;2024-01-15T08:40:15;6.57;;;6.57;;
68700;SDS011;55682;51.114;5.882;2024-01-15T08:42:41;6.26;;;6.26;;
68700;SDS011;55682;51.114;5.882;2024-01-15T08:45:08;5.75;;;5.75;;
68700;SDS011;55682;51.114;5.882;2024-01-15T08:47:35;5.78;;;5.78;;
68700;SDS011;55682;51.114;5.882;2024-01-15T08:50:01;5.78;;;5.78;;
68700;SDS011;55682;51.114;5.882;2024-01-15T08:52:28;5.12;;;5.12;;
68700;SDS011;55682;51.114;5.882;2024-01-15T08:54:55;5.09;;;5.09;;
68700;SDS011;55682;51.114;5.882;2024-01-15T08:57:21;4.77;;;4.77;;
68700;SDS011;55682;51.114;5.882;2024-01-15T08:59:47;4.55;;;4.55;;
68700;SDS011;55682;51.114;5.882;2024-01-15T09:02:13;4.42;;;4.42;;
68700;SDS011;55682;51.114;5.882;2024-01-15T09:04:39;3.86;;;3.86;;
68700;SDS011;55682;51.114;5.882;2024-01-15T09:07:06;4.53;;;4.53;;
68700;SDS011;55682;51.114;5.882;2024-01-15T09:09:32;4.16;;;4.16;;
68700;SDS011;55682;51.114;5.882;2024-01-15T09:11:59;3.88;;;3.88;;
68700;SDS011;55682;51.114;5.882;2024-01-15T09:14:24;3.56;;;3.56;;
68700;SDS011;55682;51.114;5.882;2024-01-15T09:16:52;3.61;;;3.61;;
68700;SDS011;55682;51.114;5.882;2024-01-15T09:19:18;3.49;;;3.49;;
68700;SDS011;55682;51.114;5.882;2024-01-15T09:21:44;3.11;;;3.11;;
68700;SDS011;55682;51.114;5.882;2024-01-15T09:24:10;2.87;;;2.87;;
68700;SDS011;55682;51.114;5.882;2024-01-15T09:30:31;2.58;;;2.58;;
68700;SDS011;55682;51.114;5.882;2024-01-15T09:32:57;2.78;;;2.78;;
68700;SDS011;55682;51.114;5.882;2024-01-15T09:35:22;2.76;;;2.76;;
68700;SDS011;55682;51.114;5.882;2024-01-15T09:37:48;2.77;;;2.77;;
68700;SDS011;55682;51.114;5.882;2024-01-15T09:40:15;2.62;;;2.62;;
68700;SDS011;55682;51.114;5.882;2024-01-15T09:42:41;2.67;;;2.67;;
68700;SDS011;55682;51.114;5.882;2024-01-15T09:45:08;2.54;;;2.54;;
68700;SDS011;55682;51.114;5.882;2024-01-15T09:47:35;2.31;;;2.31;;
68700;SDS011;55682;51.114;5.882;2024-01-15T09:50:02;2.27;;;2.27;;
68700;SDS011;55682;51.114;5.882;2024-01-15T09:52:29;2.20;;;2.20;;
68700;SDS011;55682;51.114;5.882;2024-01-15T09:54:56;2.37;;;2.37;;
68700;SDS011;55682;51.114;5.882;2024-01-15T09:57:26;2.18;;;2.18;;
68700;SDS011;55682;51.114;5.882;2024-01-15T09:59:52;2.04;;;2.04;;
68700;SDS011;55682;51.114;5.882;2024-01-15T10:02:20;1.85;;;1.85;;
68700;SDS011;55682;51.114;5.882;2024-01-15T10:04:46;2.56;;;2.56;;
68700;SDS011;55682;51.114;5.882;2024-01-15T10:07:16;1.71;;;1.71;;
68700;SDS011;55682;51.114;5.882;2024-01-15T10:09:44;1.67;;;1.67;;
68700;SDS011;55682;51.114;5.882;2024-01-15T10:12:11;1.70;;;1.70;;
68700;SDS011;55682;51.114;5.882;2024-01-15T10:14:37;1.72;;;1.72;;
68700;SDS011;55682;51.114;5.882;2024-01-15T10:17:15;1.84;;;1.84;;
68700;SDS011;55682;51.114;5.882;2024-01-15T10:19:41;2.04;;;2.04;;
68700;SDS011;55682;51.114;5.882;2024-01-15T10:22:07;2.14;;;2.14;;
68700;SDS011;55682;51.114;5.882;2024-01-15T10:24:36;2.34;;;2.34;;
68700;SDS011;55682;51.114;5.882;2024-01-15T10:27:05;2.39;;;2.39;;
68700;SDS011;55682;51.114;5.882;2024-01-15T10:29:32;2.10;;;2.10;;
68700;SDS011;55682;51.114;5.882;2024-01-15T10:31:58;2.42;;;2.42;;
68700;SDS011;55682;51.114;5.882;2024-01-15T10:34:24;2.53;;;2.53;;
68700;SDS011;55682;51.114;5.882;2024-01-15T10:36:50;2.87;;;2.87;;
68700;SDS011;55682;51.114;5.882;2024-01-15T10:39:21;3.10;;;3.10;;
68700;SDS011;55682;51.114;5.882;2024-01-15T10:41:47;3.27;;;3.27;;
68700;SDS011;55682;51.114;5.882;2024-01-15T10:44:13;3.51;;;3.51;;
68700;SDS011;55682;51.114;5.882;2024-01-15T10:46:39;4.07;;;4.07;;
68700;SDS011;55682;51.114;5.882;2024-01-15T10:49:05;4.40;;;4.40;;
68700;SDS011;55682;51.114;5.882;2024-01-15T10:51:32;4.94;;;4.94;;
68700;SDS011;55682;51.114;5.882;2024-01-15T10:53:57;5.44;;;5.44;;
68700;SDS011;55682;51.114;5.882;2024-01-15T10:56:25;6.41;;;6.41;;
68700;SDS011;55682;51.114;5.882;2024-01-15T10:58:55;6.62;;;6.62;;
68700;SDS011;55682;51.114;5.882;2024-01-15T11:01:22;7.26;;;7.26;;
68700;SDS011;55682;51.114;5.882;2024-01-15T11:03:48;7.23;;;7.23;;
68700;SDS011;55682;51.114;5.882;2024-01-15T11:10:03;5.92;;;5.92;;
68700;SDS011;55682;51.114;5.882;2024-01-15T11:12:29;5.62;;;5.62;;
68700;SDS011;55682;51.114;5.882;2024-01-15T11:19:00;4.25;;;4.25;;
68700;SDS011;55682;51.114;5.882;2024-01-15T11:21:28;4.20;;;4.20;;
68700;SDS011;55682;51.114;5.882;2024-01-15T11:24:00;3.83;;;3.83;;
68700;SDS011;55682;51.114;5.882;2024-01-15T11:29:02;3.61;;;3.58;;
68700;SDS011;55682;51.114;5.882;2024-01-15T11:31:56;3.61;;;3.58;;
68700;SDS011;55682;51.114;5.882;2024-01-15T11:34:16;3.23;;;3.23;;
68700;SDS011;55682;51.114;5.882;2024-01-15T11:41:54;3.57;;;3.57;;
68700;SDS011;55682;51.114;5.882;2024-01-15T11:44:21;3.73;;;3.73;;
68700;SDS011;55682;51.114;5.882;2024-01-15T11:47:08;3.79;;;3.79;;
68700;SDS011;55682;51.114;5.882;2024-01-15T11:52:20;3.98;;;3.98;;
68700;SDS011;55682;51.114;5.882;2024-01-15T11:55:11;3.80;;;3.80;;
68700;SDS011;55682;51.114;5.882;2024-01-15T11:57:53;3.64;;;3.64;;
68700;SDS011;55682;51.114;5.882;2024-01-15T12:00:20;3.14;;;3.14;;
68700;SDS011;55682;51.114;5.882;2024-01-15T12:02:47;2.80;;;2.80;;
68700;SDS011;55682;51.114;5.882;2024-01-15T12:05:15;2.80;;;2.80;;
68700;SDS011;55682;51.114;5.882;2024-01-15T12:07:43;2.69;;;2.69;;
68700;SDS011;55682;51.114;5.882;2024-01-15T12:10:10;2.44;;;2.44;;
68700;SDS011;55682;51.114;5.882;2024-01-15T12:12:39;2.29;;;2.29;;
68700;SDS011;55682;51.114;5.882;2024-01-15T12:15:23;2.39;;;2.39;;
68700;SDS011;55682;51.114;5.882;2024-01-15T12:17:50;2.34;;;2.34;;
68700;SDS011;55682;51.114;5.882;2024-01-15T12:20:17;2.03;;;2.03;;
68700;SDS011;55682;51.114;5.882;2024-01-15T12:22:43;2.01;;;2.01;;
68700;SDS011;55682;51.114;5.882;2024-01-15T12:25:09;1.86;;;1.86;;
68700;SDS011;55682;51.114;5.882;2024-01-15T12:27:35;1.72;;;1.72;;
68700;SDS011;55682;51.114;5.882;2024-01-15T12:30:02;1.71;;;1.71;;
68700;SDS011;55682;51.114;5.882;2024-01-15T12:32:28;1.91;;;1.91;;
68700;SDS011;55682;51.114;5.882;2024-01-15T12:34:54;1.65;;;1.65;;
68700;SDS011;55682;51.114;5.882;2024-01-15T12:37:20;1.72;;;1.72;;
68700;SDS011;55682;51.114;5.882;2024-01-15T12:39:47;1.51;;;1.51;;
68700;SDS011;55682;51.114;5.882;2024-01-15T12:42:16;1.58;;;1.58;;
68700;SDS011;55682;51.114;5.882;2024-01-15T12:44:42;1.53;;;1.53;;
68700;SDS011;55682;51.114;5.882;2024-01-15T12:50:56;1.56;;;1.56;;
68700;SDS011;55682;51.114;5.882;2024-01-15T12:53:22;1.54;;;1.54;;
68700;SDS011;55682;51.114;5.882;2024-01-15T12:55:47;1.67;;;1.67;;
68700;SDS011;55682;51.114;5.882;2024-01-15T12:58:13;1.71;;;1.71;;
68700;SDS011;55682;51.114;5.882;2024-01-15T13:00:39;1.81;;;1.81;;
68700;SDS011;55682;51.114;5.882;2024-01-15T13:03:05;1.78;;;1.78;;
68700;SDS011;55682;51.114;5.882;2024-01-15T13:05:31;1.92;;;1.92;;
68700;SDS011;55682;51.114;5.882;2024-01-15T13:07:58;1.91;;;1.91;;
68700;SDS011;55682;51.114;5.882;2024-01-15T13:10:24;1.96;;;1.96;;
68700;SDS011;55682;51.114;5.882;2024-01-15T13:12:50;2.12;;;2.12;;
68700;SDS011;55682;51.114;5.882;2024-01-15T13:19:03;1.97;;;1.97;;
68700;SDS011;55682;51.114;5.882;2024-01-15T13:21:29;1.81;;;1.81;;
68700;SDS011;55682;51.114;5.882;2024-01-15T13:28:01;1.67;;;1.67;;
68700;SDS011;55682;51.114;5.882;2024-01-15T13:30:27;1.40;;;1.40;;
68700;SDS011;55682;51.114;5.882;2024-01-15T13:32:53;1.40;;;1.40;;
68700;SDS011;55682;51.114;5.882;2024-01-15T13:35:21;1.56;;;1.56;;
68700;SDS011;55682;51.114;5.882;2024-01-15T13:37:47;1.50;;;1.50;;
68700;SDS011;55682;51.114;5.882;2024-01-15T13:40:13;1.55;;;1.55;;
68700;SDS011;55682;51.114;5.882;2024-01-15T13:42:42;1.61;;;1.61;;
68700;SDS011;55682;51.114;5.882;2024-01-15T13:45:07;1.66;;;1.66;;
68700;SDS011;55682;51.114;5.882;2024-01-15T13:47:33;1.50;;;1.50;;
68700;SDS011;55682;51.114;5.882;2024-01-15T13:49:59;1.78;;;1.78;;
68700;SDS011;55682;51.114;5.882;2024-01-15T13:52:25;1.54;;;1.54;;
68700;SDS011;55682;51.114;5.882;2024-01-15T13:54:53;1.50;;;1.50;;
68700;SDS011;55682;51.114;5.882;2024-01-15T13:57:18;1.59;;;1.59;;
68700;SDS011;55682;51.114;5.882;2024-01-15T13:59:44;1.45;;;1.45;;
68700;SDS011;55682;51.114;5.882;2024-01-15T14:02:10;1.48;;;1.48;;
68700;SDS011;55682;51.114;5.882;2024-01-15T14:04:37;1.31;;;1.31;;
68700;SDS011;55682;51.114;5.882;2024-01-15T14:07:03;1.28;;;1.28;;
68700;SDS011;55682;51.114;5.882;2024-01-15T14:09:29;1.49;;;1.49;;
68700;SDS011;55682;51.114;5.882;2024-01-15T14:11:56;1.52;;;1.52;;
68700;SDS011;55682;51.114;5.882;2024-01-15T14:14:22;1.36;;;1.36;;
68700;SDS011;55682;51.114;5.882;2024-01-15T14:16:49;1.33;;;1.33;;
68700;SDS011;55682;51.114;5.882;2024-01-15T14:19:15;1.41;;;1.41;;
68700;SDS011;55682;51.114;5.882;2024-01-15T14:21:41;1.34;;;1.34;;
68700;SDS011;55682;51.114;5.882;2024-01-15T14:24:06;1.47;;;1.47;;
68700;SDS011;55682;51.114;5.882;2024-01-15T14:26:32;1.77;;;1.77;;
68700;SDS011;55682;51.114;5.882;2024-01-15T14:28:58;1.85;;;1.85;;
68700;SDS011;55682;51.114;5.882;2024-01-15T14:31:24;1.80;;;1.80;;
68700;SDS011;55682;51.114;5.882;2024-01-15T14:33:54;1.72;;;1.72;;
68700;SDS011;55682;51.114;5.882;2024-01-15T14:36:23;1.81;;;1.81;;
68700;SDS011;55682;51.114;5.882;2024-01-15T14:38:49;1.82;;;1.82;;
68700;SDS011;55682;51.114;5.882;2024-01-15T14:41:15;1.70;;;1.70;;
68700;SDS011;55682;51.114;5.882;2024-01-15T14:43:42;1.67;;;1.67;;
68700;SDS011;55682;51.114;5.882;2024-01-15T14:46:07;1.51;;;1.51;;
68700;SDS011;55682;51.114;5.882;2024-01-15T14:48:33;1.57;;;1.57;;
68700;SDS011;55682;51.114;5.882;2024-01-15T14:50:59;1.58;;;1.58;;
68700;SDS011;55682;51.114;5.882;2024-01-15T14:53:24;1.60;;;1.60;;
68700;SDS011;55682;51.114;5.882;2024-01-15T14:55:50;1.65;;;1.65;;
68700;SDS011;55682;51.114;5.882;2024-01-15T14:58:16;1.63;;;1.62;;
68700;SDS011;55682;51.114;5.882;2024-01-15T15:00:41;1.90;;;1.90;;
68700;SDS011;55682;51.114;5.882;2024-01-15T15:03:07;2.07;;;2.07;;
68700;SDS011;55682;51.114;5.882;2024-01-15T15:05:33;2.58;;;2.58;;
68700;SDS011;55682;51.114;5.882;2024-01-15T15:07:58;2.36;;;2.36;;
68700;SDS011;55682;51.114;5.882;2024-01-15T15:10:24;2.10;;;2.10;;